Time;durP1;ratioP1;P1;durP2;ratioP2;P2;SDS_P1;SDS_P2;PMS_P1;PMS_P2;Temp;Humidity;BMP_temperature;BMP_pressure;BME280_temperature;BME280_humidity;BME280_pressure;Samples;Min_cycle;Max_cycle;Signal;HPM_P1;HPM_P2
2023/04/21 00:01:44;;;;;;;;;;;21.70;56.10;;;;;;4807442;55;20306;-27
2023/04/21 00:06:45;;;;;;;;;;;21.70;56.10;;;;;;4750628;55;20064;-31
2023/04/21 00:11:45;;;;;;;;;;;21.70;56.10;;;;;;4817743;55;20125;-32
2023/04/21 00:16:51;;;;;;;;;;;21.70;56.10;;;;;;4759937;55;20164;-31
2023/04/21 00:21:57;;;;;;;;;;;21.70;56.10;;;;;;4746359;58;20327;-29
2023/04/21 00:26:58;;;;;;;;;;;21.70;56.10;;;;;;4746294;55;20339;-27
2023/04/21 00:32:00;;;;;;;;;;;21.70;56.00;;;;;;4800708;55;20381;-27
2023/04/21 00:37:01;;;;;;;;;;;21.70;56.00;;;;;;4862809;55;20331;-30
2023/04/21 00:42:02;;;;;;;;;;;21.70;55.90;;;;;;4775992;55;20077;-32
2023/04/21 00:47:03;;;;;;;;;;;21.70;56.00;;;;;;4746554;58;20068;-28
2023/04/21 00:52:04;;;;;;;;;;;21.70;55.90;;;;;;4809594;55;20069;-32
2023/04/21 00:57:06;;;;;;;;;;;21.60;55.90;;;;;;4746573;58;20164;-31
2023/04/21 01:02:07;;;;;;;;;;;21.70;55.90;;;;;;4790846;55;20310;-28
2023/04/21 01:07:08;;;;;;;;;;;21.70;55.90;;;;;;4767232;55;20052;-30
2023/04/21 01:12:10;;;;;;;;;;;21.60;55.80;;;;;;4746492;55;20338;-27
2023/04/21 01:17:11;;;;;;;;;;;21.60;55.80;;;;;;4763594;55;20088;-29
2023/04/21 01:22:12;;;;;;;;;;;21.60;55.80;;;;;;4780690;55;20433;-24
2023/04/21 01:27:14;;;;;;;;;;;21.60;55.80;;;;;;4773390;55;20080;-27
2023/04/21 01:32:16;;;;;;;;;;;21.60;55.90;;;;;;4745800;58;20492;-31
2023/04/21 01:37:19;;;;;;;;;;;21.60;55.70;;;;;;4746592;58;20144;-31
2023/04/21 01:42:21;;;;;;;;;;;21.60;55.70;;;;;;4765905;55;20057;-28
2023/04/21 01:47:23;;;;;;;;;;;21.60;55.70;;;;;;4746302;58;20068;-29
2023/04/21 01:52:23;;;;;;;;;;;21.60;55.70;;;;;;4859890;55;20096;-28
2023/04/21 01:57:24;;;;;;;;;;;21.60;55.60;;;;;;4835865;55;20057;-29
2023/04/21 02:02:25;;;;;;;;;;;21.60;55.70;;;;;;4782310;55;20120;-29
2023/04/21 02:07:25;;;;;;;;;;;21.60;55.60;;;;;;4746277;55;20386;-29
2023/04/21 02:12:26;;;;;;;;;;;21.60;55.70;;;;;;4758755;55;20073;-31
2023/04/21 02:17:27;;;;;;;;;;;21.60;55.60;;;;;;4778045;55;20108;-32
2023/04/21 02:22:27;;;;;;;;;;;21.60;55.60;;;;;;4817632;55;20072;-31
2023/04/21 02:27:28;;;;;;;;;;;21.60;55.60;;;;;;4746564;56;20315;-31
2023/04/21 02:32:29;;;;;;;;;;;21.60;55.50;;;;;;4745828;58;20081;-32
2023/04/21 02:37:30;;;;;;;;;;;21.60;55.60;;;;;;4746756;58;20287;-27
2023/04/21 02:42:32;;;;;;;;;;;21.60;55.50;;;;;;4849649;55;20099;-31
2023/04/21 02:47:33;;;;;;;;;;;21.60;55.50;;;;;;4886494;55;20303;-31
2023/04/21 02:52:39;;;;;;;;;;;21.60;55.50;;;;;;4785984;55;20109;-23
2023/04/21 02:57:40;;;;;;;;;;;21.60;55.40;;;;;;4755722;55;20291;-27
2023/04/21 03:02:41;;;;;;;;;;;21.60;55.40;;;;;;4797067;55;20072;-30
2023/04/21 03:07:43;;;;;;;;;;;21.60;55.50;;;;;;4877338;55;20351;-31
2023/04/21 03:12:44;;;;;;;;;;;21.60;55.40;;;;;;4773284;55;20350;-29
2023/04/21 03:17:45;;;;;;;;;;;21.60;55.30;;;;;;4802109;55;20299;-31
2023/04/21 03:22:45;;;;;;;;;;;21.60;55.20;;;;;;4766849;55;20072;-31
2023/04/21 03:27:46;;;;;;;;;;;21.60;55.30;;;;;;4746613;58;20299;-31
2023/04/21 03:32:46;;;;;;;;;;;21.60;55.20;;;;;;4762139;55;20056;-29
2023/04/21 03:37:48;;;;;;;;;;;21.60;55.20;;;;;;4746319;58;20072;-30
2023/04/21 03:42:49;;;;;;;;;;;21.60;55.20;;;;;;4775484;55;20298;-29
2023/04/21 03:47:54;;;;;;;;;;;21.60;55.20;;;;;;4746060;58;20149;-30
2023/04/21 03:52:54;;;;;;;;;;;21.60;55.20;;;;;;4746762;58;20343;-26
2023/04/21 03:57:55;;;;;;;;;;;21.60;55.10;;;;;;4830918;55;20112;-28
2023/04/21 04:02:56;;;;;;;;;;;21.60;55.20;;;;;;4758504;55;20275;-26
2023/04/21 04:07:56;;;;;;;;;;;21.60;55.80;;;;;;4755995;55;20308;-27
2023/04/21 04:12:57;;;;;;;;;;;21.60;55.00;;;;;;4749639;55;20076;-28
2023/04/21 04:17:57;;;;;;;;;;;21.60;55.10;;;;;;4746398;58;20144;-28
2023/04/21 04:22:58;;;;;;;;;;;21.60;55.00;;;;;;4765834;55;20307;-27
2023/04/21 04:27:59;;;;;;;;;;;21.60;55.00;;;;;;4746098;56;20060;-28
2023/04/21 04:33:00;;;;;;;;;;;21.60;55.10;;;;;;4838026;54;20342;-31
2023/04/21 04:38:03;;;;;;;;;;;21.60;55.00;;;;;;4752058;55;20072;-31
2023/04/21 04:43:03;;;;;;;;;;;21.60;55.60;;;;;;4756333;55;20302;-32
2023/04/21 04:48:04;;;;;;;;;;;21.60;54.90;;;;;;4746024;58;20104;-28
2023/04/21 04:53:05;;;;;;;;;;;21.60;54.80;;;;;;4764639;55;20294;-31
2023/04/21 04:58:06;;;;;;;;;;;21.60;54.90;;;;;;4879450;55;20064;-29
2023/04/21 05:03:06;;;;;;;;;;;21.60;54.80;;;;;;4803628;55;20124;-29
2023/04/21 05:08:07;;;;;;;;;;;21.60;54.80;;;;;;4802816;55;20072;-27
2023/04/21 05:13:08;;;;;;;;;;;21.60;54.80;;;;;;4746272;58;20062;-30
2023/04/21 05:18:08;;;;;;;;;;;21.60;54.80;;;;;;4752585;55;20084;-26
2023/04/21 05:23:09;;;;;;;;;;;21.60;54.80;;;;;;4802594;55;20116;-27
2023/04/21 05:28:10;;;;;;;;;;;21.50;54.60;;;;;;4780027;55;20290;-34
2023/04/21 05:33:11;;;;;;;;;;;21.50;54.70;;;;;;4751029;55;20084;-30
2023/04/21 05:38:12;;;;;;;;;;;21.50;54.60;;;;;;4811701;55;20307;-31
2023/04/21 05:43:12;;;;;;;;;;;21.60;54.70;;;;;;4832809;55;20128;-27
2023/04/21 05:48:13;;;;;;;;;;;21.50;54.60;;;;;;4781309;55;20335;-27
2023/04/21 05:53:13;;;;;;;;;;;21.50;54.60;;;;;;4746047;58;20080;-32
2023/04/21 05:58:14;;;;;;;;;;;21.50;54.60;;;;;;4746594;55;20084;-28
2023/04/21 06:03:15;;;;;;;;;;;21.60;54.50;;;;;;4746013;58;20085;-28
2023/04/21 06:08:15;;;;;;;;;;;21.50;54.50;;;;;;4772485;55;20116;-29
2023/04/21 06:13:16;;;;;;;;;;;21.50;54.60;;;;;;4781296;55;20084;-33
2023/04/21 06:18:17;;;;;;;;;;;21.50;54.50;;;;;;4771557;55;20159;-31
2023/04/21 06:23:18;;;;;;;;;;;21.50;54.50;;;;;;4746301;58;20302;-30
2023/04/21 06:28:18;;;;;;;;;;;21.50;54.50;;;;;;4786799;55;20104;-33
2023/04/21 06:33:20;;;;;;;;;;;21.50;55.10;;;;;;4901237;55;20355;-30
2023/04/21 06:38:21;;;;;;;;;;;21.50;54.50;;;;;;4861282;55;20076;-30
2023/04/21 06:43:22;;;;;;;;;;;21.50;54.70;;;;;;4761088;55;20302;-33
2023/04/21 06:48:23;;;;;;;;;;;21.50;54.50;;;;;;4771833;55;20108;-30
2023/04/21 06:53:24;;;;;;;;;;;21.50;54.40;;;;;;4746491;58;20315;-31
2023/04/21 06:58:25;;;;;;;;;;;21.50;54.50;;;;;;4746276;58;20080;-27
2023/04/21 07:03:26;;;;;;;;;;;21.50;54.40;;;;;;4854233;55;20363;-31
2023/04/21 07:08:26;;;;;;;;;;;21.50;54.40;;;;;;4804333;55;20120;-32
2023/04/21 07:13:27;;;;;;;;;;;21.50;54.40;;;;;;4816099;55;20295;-32
2023/04/21 07:18:27;;;;;;;;;;;21.50;54.50;;;;;;4759325;55;20084;-28
2023/04/21 07:23:28;;;;;;;;;;;21.60;54.50;;;;;;4768948;55;20367;-26
2023/04/21 07:28:29;;;;;;;;;;;21.60;54.50;;;;;;4774589;55;20076;-28
2023/04/21 07:33:29;;;;;;;;;;;21.60;54.50;;;;;;4799230;54;20077;-32
2023/04/21 07:38:30;;;;;;;;;;;21.60;54.50;;;;;;4753381;55;20112;-31
2023/04/21 07:43:31;;;;;;;;;;;21.60;54.50;;;;;;4818629;55;20092;-28
2023/04/21 07:48:32;;;;;;;;;;;21.60;54.50;;;;;;4764362;55;20261;-28
2023/04/21 07:53:35;;;;;;;;;;;21.60;54.50;;;;;;5036184;55;20120;-28
2023/04/21 07:58:36;;;;;;;;;;;21.60;54.50;;;;;;4817068;55;20243;-33
2023/04/21 08:03:37;;;;;;;;;;;21.60;54.50;;;;;;4781689;55;20080;-28
2023/04/21 08:08:37;;;;;;;;;;;21.60;54.50;;;;;;4746266;58;20331;-25
2023/04/21 08:13:38;;;;;;;;;;;21.60;54.50;;;;;;4784972;55;20068;-27
2023/04/21 08:18:39;;;;;;;;;;;21.60;54.60;;;;;;4746647;55;20084;-29
2023/04/21 08:23:39;;;;;;;;;;;21.60;54.50;;;;;;4763485;55;20164;-26
2023/04/21 08:28:40;;;;;;;;;;;21.60;54.50;;;;;;4765432;55;20136;-29
2023/04/21 08:33:41;;;;;;;;;;;21.60;54.50;;;;;;4797018;54;20077;-26
2023/04/21 08:38:42;;;;;;;;;;;21.60;54.50;;;;;;4746899;58;20163;-28
2023/04/21 08:43:42;;;;;;;;;;;21.50;54.50;;;;;;4845905;55;20393;-25
2023/04/21 08:48:46;;;;;;;;;;;21.60;54.60;;;;;;4768342;55;20112;-26
2023/04/21 08:53:46;;;;;;;;;;;21.60;54.60;;;;;;4746468;58;20380;-28
2023/04/21 08:58:47;;;;;;;;;;;21.60;54.60;;;;;;4746664;58;20065;-29
2023/04/21 09:03:47;;;;;;;;;;;21.50;54.50;;;;;;4793417;55;20105;-32
2023/04/21 09:08:54;;;;;;;;;;;21.60;55.30;;;;;;4794926;55;20350;-28
2023/04/21 09:13:56;;;;;;;;;;;21.60;54.60;;;;;;4786469;55;20287;-30
2023/04/21 09:18:58;;;;;;;;;;;21.60;54.70;;;;;;4771306;55;20298;-29
2023/04/21 09:24:04;;;;;;;;;;;21.60;54.60;;;;;;4792834;55;20060;-29
2023/04/21 09:29:05;;;;;;;;;;;21.60;54.60;;;;;;4747382;55;20342;-28
2023/04/21 09:34:17;;;;;;;;;;;21.60;54.70;;;;;;4850598;55;20295;-29
2023/04/21 09:39:17;;;;;;;;;;;21.60;54.70;;;;;;4788718;55;20303;-28
2023/04/21 09:44:18;;;;;;;;;;;21.60;54.70;;;;;;4746157;57;20137;-25
2023/04/21 09:49:21;;;;;;;;;;;21.60;54.70;;;;;;4808917;55;20045;-26
2023/04/21 09:54:27;;;;;;;;;;;21.60;54.70;;;;;;4746115;58;20200;-30
2023/04/21 09:59:35;;;;;;;;;;;21.60;54.70;;;;;;4901911;55;20301;-28
2023/04/21 10:04:35;;;;;;;;;;;21.60;54.70;;;;;;4746458;58;20129;-24
2023/04/21 10:09:42;;;;;;;;;;;21.60;54.80;;;;;;4770938;55;20298;-33
2023/04/21 10:14:42;;;;;;;;;;;21.60;54.80;;;;;;4753203;55;20112;-30
2023/04/21 10:19:53;;;;;;;;;;;21.60;54.80;;;;;;4747106;55;20115;-31
2023/04/21 10:24:55;;;;;;;;;;;21.60;54.90;;;;;;4746686;55;20116;-28
2023/04/21 10:29:57;;;;;;;;;;;21.60;54.80;;;;;;4762982;55;20828;-30
2023/04/21 10:34:57;;;;;;;;;;;21.60;54.80;;;;;;4755096;55;20096;-29
2023/04/21 10:39:58;;;;;;;;;;;21.60;54.80;;;;;;4837097;55;20252;-31
2023/04/21 10:45:07;;;;;;;;;;;21.60;54.80;;;;;;4860627;55;20394;-27
2023/04/21 10:50:26;;;;;;;;;;;21.60;54.90;;;;;;4818008;55;20088;-29
2023/04/21 10:55:28;;;;;;;;;;;21.60;55.50;;;;;;4755096;55;20080;-27
2023/04/21 11:00:29;;;;;;;;;;;21.60;54.90;;;;;;4897902;55;20092;-32
2023/04/21 11:05:35;;;;;;;;;;;21.60;54.90;;;;;;4746615;58;20299;-27
2023/04/21 11:10:45;;;;;;;;;;;21.60;54.90;;;;;;4788874;55;20175;-28
2023/04/21 11:16:04;;;;;;;;;;;21.60;54.90;;;;;;4746568;58;20275;-28
2023/04/21 11:21:12;;;;;;;;;;;21.60;54.90;;;;;;4787254;55;20064;-32
2023/04/21 11:26:13;;;;;;;;;;;21.60;54.90;;;;;;4811907;55;20056;-29
2023/04/21 11:31:14;;;;;;;;;;;21.60;55.00;;;;;;4784689;55;20116;-28
2023/04/21 11:36:15;;;;;;;;;;;21.60;54.90;;;;;;4874244;55;20279;-29
2023/04/21 11:41:22;;;;;;;;;;;21.60;55.00;;;;;;4781834;55;20156;-29
2023/04/21 11:46:26;;;;;;;;;;;21.60;55.00;;;;;;4748731;55;20116;-28
2023/04/21 11:51:31;;;;;;;;;;;21.60;55.00;;;;;;4759683;55;20052;-30
2023/04/21 11:56:36;;;;;;;;;;;21.60;55.00;;;;;;4765492;55;20076;-28
2023/04/21 12:01:47;;;;;;;;;;;21.60;55.00;;;;;;4759328;55;20371;-30
2023/04/21 12:06:58;;;;;;;;;;;21.60;55.00;;;;;;4746470;58;20064;-26
2023/04/21 12:12:00;;;;;;;;;;;21.60;55.00;;;;;;4747112;55;20299;-28
2023/04/21 12:17:01;;;;;;;;;;;21.60;55.00;;;;;;4828631;55;20843;-29
2023/04/21 12:22:05;;;;;;;;;;;21.60;55.00;;;;;;4746420;58;20132;-27
2023/04/21 12:27:06;;;;;;;;;;;21.60;55.10;;;;;;4820745;55;20073;-30
2023/04/21 12:32:08;;;;;;;;;;;21.60;55.00;;;;;;4770290;55;20120;-31
2023/04/21 12:37:08;;;;;;;;;;;21.60;55.00;;;;;;4824278;55;20189;-29
2023/04/21 12:42:10;;;;;;;;;;;21.60;55.00;;;;;;4761636;55;20303;-27
2023/04/21 12:47:10;;;;;;;;;;;21.60;55.00;;;;;;4781317;55;20060;-28
2023/04/21 12:52:11;;;;;;;;;;;21.60;55.00;;;;;;4758760;55;20092;-29
2023/04/21 12:57:12;;;;;;;;;;;21.60;55.10;;;;;;4756544;55;20299;-24
2023/04/21 13:02:13;;;;;;;;;;;21.60;55.10;;;;;;4746512;58;20331;-29
2023/04/21 13:07:20;;;;;;;;;;;21.70;55.10;;;;;;4748981;55;20109;-27
2023/04/21 13:12:20;;;;;;;;;;;21.60;55.10;;;;;;4746352;58;20359;-31
2023/04/21 13:17:21;;;;;;;;;;;21.60;55.10;;;;;;4746361;55;20112;-30
2023/04/21 13:22:22;;;;;;;;;;;21.60;55.10;;;;;;4746301;58;20283;-27
2023/04/21 13:27:22;;;;;;;;;;;21.60;55.00;;;;;;4753624;55;20180;-27
2023/04/21 13:32:23;;;;;;;;;;;21.60;55.10;;;;;;4770600;55;20061;-29
2023/04/21 13:37:24;;;;;;;;;;;21.60;55.10;;;;;;4746217;58;20326;-28
2023/04/21 13:42:25;;;;;;;;;;;21.60;55.10;;;;;;4747152;58;20128;-29
2023/04/21 13:47:25;;;;;;;;;;;21.60;55.10;;;;;;4746546;58;20165;-32
2023/04/21 13:52:26;;;;;;;;;;;21.60;55.10;;;;;;4787961;55;20092;-26
2023/04/21 13:57:27;;;;;;;;;;;21.60;55.00;;;;;;4746988;58;20346;-28
2023/04/21 14:02:28;;;;;;;;;;;21.60;55.00;;;;;;4746791;58;20116;-27
2023/04/21 14:07:29;;;;;;;;;;;21.60;55.00;;;;;;4746343;58;20061;-27
2023/04/21 14:12:30;;;;;;;;;;;21.60;55.00;;;;;;4806088;55;20096;-27
2023/04/21 14:17:31;;;;;;;;;;;21.60;55.00;;;;;;4839074;55;20336;-28
2023/04/21 14:22:32;;;;;;;;;;;21.60;55.00;;;;;;4830614;55;20091;-30
2023/04/21 14:27:34;;;;;;;;;;;21.60;55.00;;;;;;4872425;55;20424;-28
2023/04/21 14:32:34;;;;;;;;;;;21.60;55.50;;;;;;4786762;55;20310;-29
2023/04/21 14:37:35;;;;;;;;;;;21.60;55.00;;;;;;4776538;55;20064;-27
2023/04/21 14:42:37;;;;;;;;;;;21.60;55.00;;;;;;4823495;55;20302;-24
2023/04/21 14:47:37;;;;;;;;;;;21.60;55.00;;;;;;4820766;55;20109;-29
2023/04/21 14:52:38;;;;;;;;;;;21.60;55.00;;;;;;4746677;58;20121;-27
2023/04/21 14:57:39;;;;;;;;;;;21.60;55.00;;;;;;4873258;55;20263;-28
2023/04/21 15:02:39;;;;;;;;;;;21.60;55.00;;;;;;4879812;55;20104;-29
2023/04/21 15:07:41;;;;;;;;;;;21.60;55.00;;;;;;4756732;55;20115;-31
2023/04/21 15:12:43;;;;;;;;;;;21.60;55.00;;;;;;4748202;55;20411;-30
2023/04/21 15:17:44;;;;;;;;;;;21.60;54.90;;;;;;4746463;58;20072;-28
2023/04/21 15:22:45;;;;;;;;;;;21.60;55.00;;;;;;4748607;55;20143;-27
2023/04/21 15:27:45;;;;;;;;;;;21.60;54.90;;;;;;4763477;55;20125;-27
2023/04/21 15:32:46;;;;;;;;;;;21.60;54.90;;;;;;4789444;55;20068;-28
2023/04/21 15:37:47;;;;;;;;;;;21.60;54.90;;;;;;4787813;55;20108;-32
2023/04/21 15:42:47;;;;;;;;;;;21.60;55.00;;;;;;4906638;55;20072;-29
2023/04/21 15:47:48;;;;;;;;;;;21.60;54.90;;;;;;4745976;58;20120;-32
2023/04/21 15:52:49;;;;;;;;;;;21.70;54.90;;;;;;4746624;58;20052;-32
2023/04/21 15:57:49;;;;;;;;;;;21.60;54.90;;;;;;4815187;55;20218;-30
2023/04/21 16:02:50;;;;;;;;;;;21.70;54.90;;;;;;4864213;55;20109;-30
2023/04/21 16:07:50;;;;;;;;;;;21.60;54.90;;;;;;4809208;55;20116;-29
2023/04/21 16:12:51;;;;;;;;;;;21.70;54.90;;;;;;4746182;58;20184;-26
2023/04/21 16:17:52;;;;;;;;;;;21.70;54.90;;;;;;4746449;58;20081;-34
2023/04/21 16:22:52;;;;;;;;;;;21.70;54.80;;;;;;4745975;58;20295;-30
2023/04/21 16:27:53;;;;;;;;;;;21.60;54.90;;;;;;4785646;55;20105;-28
2023/04/21 16:32:54;;;;;;;;;;;21.70;54.90;;;;;;4745288;58;20116;-29
2023/04/21 16:37:54;;;;;;;;;;;21.70;54.90;;;;;;4802505;55;20061;-31
2023/04/21 16:42:55;;;;;;;;;;;21.70;54.90;;;;;;4806180;55;20274;-32
2023/04/21 16:47:56;;;;;;;;;;;21.70;54.80;;;;;;4754864;55;20088;-30
2023/04/21 16:52:57;;;;;;;;;;;21.70;54.80;;;;;;4746558;55;20359;-29
2023/04/21 16:57:58;;;;;;;;;;;21.60;54.80;;;;;;4755036;55;20100;-28
2023/04/21 17:02:59;;;;;;;;;;;21.70;54.80;;;;;;4746256;58;20072;-30
2023/04/21 17:07:59;;;;;;;;;;;21.70;54.80;;;;;;4966399;55;20168;-32
2023/04/21 17:13:00;;;;;;;;;;;21.70;54.80;;;;;;4782661;55;20167;-28
2023/04/21 17:18:01;;;;;;;;;;;21.70;54.80;;;;;;4824442;55;20077;-31
2023/04/21 17:23:01;;;;;;;;;;;21.70;54.80;;;;;;4777763;55;20331;-29
2023/04/21 17:28:03;;;;;;;;;;;21.70;54.80;;;;;;4745779;58;20127;-31
2023/04/21 17:33:05;;;;;;;;;;;21.70;54.80;;;;;;4745230;58;20298;-27
2023/04/21 17:38:06;;;;;;;;;;;21.70;54.80;;;;;;4756180;55;20299;-28
2023/04/21 17:43:06;;;;;;;;;;;21.70;54.80;;;;;;4746372;58;20068;-29
2023/04/21 17:48:07;;;;;;;;;;;21.70;54.80;;;;;;4759528;55;20165;-32
2023/04/21 17:53:08;;;;;;;;;;;21.70;54.90;;;;;;4765693;55;20143;-31
2023/04/21 17:58:09;;;;;;;;;;;21.70;54.80;;;;;;4863519;55;20104;-29
2023/04/21 18:03:09;;;;;;;;;;;21.70;54.80;;;;;;4801094;55;20084;-31
2023/04/21 18:08:10;;;;;;;;;;;21.60;54.70;;;;;;4862635;55;20069;-31
2023/04/21 18:13:10;;;;;;;;;;;21.70;54.80;;;;;;4746270;58;20283;-29
2023/04/21 18:18:11;;;;;;;;;;;21.70;54.80;;;;;;4745809;58;20076;-30
2023/04/21 18:23:12;;;;;;;;;;;21.70;54.70;;;;;;4759465;55;20080;-29
2023/04/21 18:28:13;;;;;;;;;;;21.70;54.80;;;;;;4786985;55;20383;-30
2023/04/21 18:33:13;;;;;;;;;;;21.70;54.80;;;;;;4745776;58;20812;-28
2023/04/21 18:38:14;;;;;;;;;;;21.70;54.80;;;;;;4770998;55;20092;-27
2023/04/21 18:43:15;;;;;;;;;;;21.70;54.80;;;;;;4764927;55;20912;-29
2023/04/21 18:48:16;;;;;;;;;;;21.70;54.80;;;;;;4806277;55;20100;-30
2023/04/21 18:53:16;;;;;;;;;;;21.70;54.70;;;;;;4746937;58;20156;-31
2023/04/21 18:58:17;;;;;;;;;;;21.70;54.80;;;;;;4810812;55;20116;-28
2023/04/21 19:03:18;;;;;;;;;;;21.70;54.70;;;;;;4746656;58;20397;-29
2023/04/21 19:08:18;;;;;;;;;;;21.70;54.80;;;;;;4767263;55;20116;-29
2023/04/21 19:13:19;;;;;;;;;;;21.70;54.80;;;;;;4786906;55;20362;-31
2023/04/21 19:18:20;;;;;;;;;;;21.70;54.80;;;;;;4757486;55;20064;-28
2023/04/21 19:23:21;;;;;;;;;;;21.70;54.70;;;;;;4781127;55;20243;-27
2023/04/21 19:28:22;;;;;;;;;;;21.70;54.80;;;;;;4882750;55;20112;-26
2023/04/21 19:33:22;;;;;;;;;;;21.70;54.70;;;;;;4773721;55;20306;-29
2023/04/21 19:38:24;;;;;;;;;;;21.70;54.70;;;;;;4746750;58;20132;-27
2023/04/21 19:43:24;;;;;;;;;;;21.70;54.70;;;;;;4746871;55;20120;-28
2023/04/21 19:48:25;;;;;;;;;;;21.70;54.80;;;;;;4752113;55;20150;-27
2023/04/21 19:53:28;;;;;;;;;;;21.70;54.70;;;;;;4766820;55;20283;-27
2023/04/21 19:58:29;;;;;;;;;;;21.70;54.80;;;;;;4767244;55;20161;-28
2023/04/21 20:03:31;;;;;;;;;;;21.70;54.70;;;;;;4746621;58;20293;-28
2023/04/21 20:08:32;;;;;;;;;;;21.70;54.70;;;;;;4746460;58;20291;-29
2023/04/21 20:13:32;;;;;;;;;;;21.70;54.80;;;;;;4763539;55;20338;-28
2023/04/21 20:18:35;;;;;;;;;;;21.70;54.70;;;;;;4767894;55;20157;-25
2023/04/21 20:23:35;;;;;;;;;;;21.70;54.70;;;;;;4844085;55;20144;-28
2023/04/21 20:28:36;;;;;;;;;;;21.70;54.80;;;;;;4746224;58;20352;-28
2023/04/21 20:33:36;;;;;;;;;;;21.60;54.70;;;;;;4791763;54;20060;-29
2023/04/21 20:38:37;;;;;;;;;;;21.70;54.80;;;;;;4786784;55;20120;-30
2023/04/21 20:43:39;;;;;;;;;;;21.70;54.70;;;;;;4794198;55;20064;-27
2023/04/21 20:48:40;;;;;;;;;;;21.70;54.70;;;;;;4863872;55;20318;-33
2023/04/21 20:53:40;;;;;;;;;;;21.60;54.70;;;;;;4747269;55;20064;-28
2023/04/21 20:58:41;;;;;;;;;;;21.70;54.70;;;;;;4746827;58;20345;-29
2023/04/21 21:03:44;;;;;;;;;;;21.70;54.70;;;;;;4746646;58;20076;-26
2023/04/21 21:08:45;;;;;;;;;;;21.70;54.80;;;;;;4746501;58;20326;-26
2023/04/21 21:13:46;;;;;;;;;;;21.60;54.70;;;;;;4831684;55;20112;-27
2023/04/21 21:18:46;;;;;;;;;;;21.70;54.70;;;;;;4770177;55;20129;-28
2023/04/21 21:23:47;;;;;;;;;;;21.70;54.70;;;;;;4796752;55;20083;-30
2023/04/21 21:28:48;;;;;;;;;;;21.70;54.70;;;;;;4784551;55;20108;-30
2023/04/21 21:33:48;;;;;;;;;;;21.60;54.70;;;;;;4781077;55;20064;-27
2023/04/21 21:38:49;;;;;;;;;;;21.70;54.70;;;;;;4746720;55;20064;-28
2023/04/21 21:43:50;;;;;;;;;;;21.70;54.70;;;;;;4829914;55;20299;-28
2023/04/21 21:48:51;;;;;;;;;;;21.70;54.70;;;;;;4756432;55;20152;-27
2023/04/21 21:53:51;;;;;;;;;;;21.60;54.60;;;;;;4762779;55;20060;-29
2023/04/21 21:58:52;;;;;;;;;;;21.70;54.70;;;;;;4746327;58;20310;-29
2023/04/21 22:03:53;;;;;;;;;;;21.60;54.60;;;;;;4748741;55;20378;-29
2023/04/21 22:08:53;;;;;;;;;;;21.60;54.70;;;;;;4750564;55;20108;-32
2023/04/21 22:13:54;;;;;;;;;;;21.60;54.60;;;;;;4746549;58;20106;-29
2023/04/21 22:18:56;;;;;;;;;;;21.70;54.70;;;;;;4766545;55;20358;-28
2023/04/21 22:23:56;;;;;;;;;;;21.70;54.70;;;;;;4803992;55;20063;-30
2023/04/21 22:28:57;;;;;;;;;;;21.60;54.60;;;;;;4869770;55;20109;-32
2023/04/21 22:33:58;;;;;;;;;;;21.60;54.60;;;;;;4768337;55;20065;-31
2023/04/21 22:38:58;;;;;;;;;;;21.60;54.60;;;;;;4752266;55;20089;-28
2023/04/21 22:43:59;;;;;;;;;;;21.60;54.60;;;;;;4776562;55;20109;-30
2023/04/21 22:49:01;;;;;;;;;;;21.60;54.60;;;;;;4746334;58;20381;-32
2023/04/21 22:54:02;;;;;;;;;;;21.60;54.60;;;;;;4753120;55;20279;-28
2023/04/21 22:59:02;;;;;;;;;;;21.60;54.60;;;;;;4770426;55;20322;-30
2023/04/21 23:04:03;;;;;;;;;;;21.60;54.50;;;;;;4750269;55;20060;-28
2023/04/21 23:09:05;;;;;;;;;;;21.60;54.50;;;;;;4789887;55;20128;-29
2023/04/21 23:14:06;;;;;;;;;;;21.60;54.70;;;;;;4768966;55;20370;-30
2023/04/21 23:19:06;;;;;;;;;;;21.60;54.60;;;;;;4787303;55;20069;-33
2023/04/21 23:24:08;;;;;;;;;;;21.60;54.60;;;;;;4746889;55;20330;-29
2023/04/21 23:29:09;;;;;;;;;;;21.60;54.50;;;;;;4818996;55;20069;-28
2023/04/21 23:34:10;;;;;;;;;;;21.60;54.60;;;;;;4746690;56;20425;-28
2023/04/21 23:39:10;;;;;;;;;;;21.60;54.50;;;;;;4763694;55;20061;-28
2023/04/21 23:44:11;;;;;;;;;;;21.60;54.50;;;;;;4752386;55;20159;-29
2023/04/21 23:49:12;;;;;;;;;;;21.60;54.50;;;;;;4813250;55;20121;-28
2023/04/21 23:54:12;;;;;;;;;;;21.60;54.50;;;;;;4747170;58;20311;-29
2023/04/21 23:59:13;;;;;;;;;;;21.60;54.50;;;;;;4804448;55;20232;-29
